Time;durP1;ratioP1;P1;durP2;ratioP2;P2;SDS_P1;SDS_P2;PMS_P1;PMS_P2;Temp;Humidity;BMP_temperature;BMP_pressure;BME280_temperature;BME280_humidity;BME280_pressure;Samples;Min_cycle;Max_cycle;Signal;HPM_P1;HPM_P2
2022/09/27 00:02:09;;;;;;;0.90;0.77;;;22.60;69.50;;;;;;5113726;28;20526;-86
2022/09/27 00:04:36;;;;;;;1.00;0.90;;;22.60;69.50;;;;;;5113897;28;20561;-86
2022/09/27 00:07:03;;;;;;;1.23;1.00;;;22.60;69.50;;;;;;5113509;28;20531;-85
2022/09/27 00:09:30;;;;;;;0.80;0.80;;;22.60;69.50;;;;;;5113647;28;20471;-86
2022/09/27 00:11:56;;;;;;;0.80;0.80;;;22.60;69.60;;;;;;5113921;28;20438;-86
2022/09/27 00:14:25;;;;;;;1.10;1.00;;;22.60;69.50;;;;;;5113609;28;20533;-86
2022/09/27 00:16:51;;;;;;;1.10;0.90;;;22.60;69.50;;;;;;5113576;28;21005;-86
2022/09/27 00:19:21;;;;;;;1.00;0.90;;;22.50;69.40;;;;;;5113433;28;20886;-86
2022/09/27 00:21:48;;;;;;;0.90;0.80;;;22.50;70.20;;;;;;5113662;28;20516;-86
2022/09/27 00:24:17;;;;;;;0.80;0.80;;;22.60;69.50;;;;;;5113914;28;20489;-86
2022/09/27 00:26:45;;;;;;;0.80;0.70;;;22.60;69.40;;;;;;5113823;28;20442;-86
2022/09/27 00:29:13;;;;;;;0.90;0.80;;;22.60;69.40;;;;;;5113744;28;20500;-85
2022/09/27 00:31:41;;;;;;;1.67;0.70;;;22.60;69.40;;;;;;5113811;28;20467;-85
2022/09/27 00:34:16;;;;;;;1.00;0.80;;;22.50;69.30;;;;;;5113970;28;20462;-86
2022/09/27 00:36:43;;;;;;;0.80;0.60;;;22.60;69.40;;;;;;5113530;28;20457;-86
2022/09/27 00:39:10;;;;;;;0.90;0.80;;;22.50;69.30;;;;;;5113721;28;20483;-85
2022/09/27 00:41:38;;;;;;;2.00;0.90;;;22.50;69.40;;;;;;5113779;28;20462;-85
2022/09/27 00:44:43;;;;;;;1.03;0.93;;;22.50;69.30;;;;;;5113827;28;20475;-85
2022/09/27 00:47:16;;;;;;;0.80;0.70;;;22.60;69.30;;;;;;5113333;28;20515;-85
2022/09/27 00:49:48;;;;;;;0.80;0.70;;;22.50;69.40;;;;;;5113673;28;20990;-86
2022/09/27 00:52:20;;;;;;;1.17;0.83;;;22.50;69.30;;;;;;5115690;28;20537;-85
2022/09/27 00:54:50;;;;;;;2.10;0.80;;;22.60;69.40;;;;;;5117544;28;20558;-86
2022/09/27 00:57:17;;;;;;;0.80;0.70;;;22.50;69.30;;;;;;5117181;28;20439;-86
2022/09/27 00:59:48;;;;;;;0.70;0.60;;;22.50;69.30;;;;;;5117575;28;20791;-86
2022/09/27 01:02:16;;;;;;;2.53;0.70;;;22.50;69.20;;;;;;5117376;28;20526;-86
2022/09/27 01:04:45;;;;;;;1.00;0.70;;;22.50;69.30;;;;;;5116925;28;20577;-86
2022/09/27 01:07:12;;;;;;;0.80;0.70;;;22.50;69.30;;;;;;5117183;28;20481;-86
2022/09/27 01:09:39;;;;;;;0.80;0.70;;;22.50;69.30;;;;;;5117368;28;20526;-85
2022/09/27 01:12:17;;;;;;;1.17;0.77;;;22.50;69.30;;;;;;5117180;28;20467;-85
2022/09/27 01:15:01;;;;;;;0.80;0.80;;;22.50;69.20;;;;;;5117178;28;20502;-85
2022/09/27 01:17:43;;;;;;;1.43;0.80;;;22.50;69.20;;;;;;5117388;28;20475;-85
2022/09/27 01:20:55;;;;;;;1.00;0.87;;;22.50;69.20;;;;;;5117733;28;20502;-85
2022/09/27 01:23:47;;;;;;;0.80;0.70;;;22.50;69.10;;;;;;5014089;28;20545;-85
2022/09/27 01:26:28;;;;;;;1.00;0.90;;;22.50;69.20;;;;;;5014272;28;20567;-85
2022/09/27 01:29:03;;;;;;;0.87;0.80;;;22.50;69.30;;;;;;5095528;28;20522;-85
2022/09/27 01:31:36;;;;;;;1.20;0.90;;;22.50;69.20;;;;;;5117232;28;20853;-85
2022/09/27 01:34:09;;;;;;;0.80;0.70;;;22.50;69.30;;;;;;5116462;28;20526;-85
2022/09/27 01:36:47;;;;;;;0.80;0.80;;;22.50;69.30;;;;;;5116516;28;21410;-85
2022/09/27 01:39:31;;;;;;;0.80;0.80;;;22.50;69.30;;;;;;5116625;28;20525;-85
2022/09/27 01:42:05;;;;;;;0.90;0.80;;;22.50;69.20;;;;;;5116568;28;20477;-85
2022/09/27 01:44:37;;;;;;;0.80;0.80;;;22.50;69.20;;;;;;5116628;28;20521;-85
2022/09/27 01:47:10;;;;;;;0.87;0.80;;;22.50;69.20;;;;;;5116636;28;20526;-85
2022/09/27 01:49:43;;;;;;;0.80;0.70;;;22.50;69.20;;;;;;5116630;28;20847;-85
2022/09/27 01:52:13;;;;;;;1.13;1.03;;;22.50;69.20;;;;;;5116413;28;20881;-85
2022/09/27 01:54:43;;;;;;;0.80;0.70;;;22.50;69.20;;;;;;5116545;28;20458;-85
2022/09/27 01:57:13;;;;;;;1.00;0.90;;;22.50;69.20;;;;;;5116050;28;20519;-85
2022/09/27 01:59:45;;;;;;;0.80;0.77;;;22.50;69.20;;;;;;5116114;28;20477;-85
2022/09/27 02:02:16;;;;;;;1.07;0.97;;;22.50;69.10;;;;;;5115627;28;20445;-85
2022/09/27 02:04:44;;;;;;;0.90;0.80;;;22.50;69.10;;;;;;5095563;28;20522;-85
2022/09/27 02:07:20;;;;;;;1.40;0.80;;;22.50;69.10;;;;;;5095722;28;20526;-85
2022/09/27 02:09:51;;;;;;;0.90;0.73;;;22.50;69.10;;;;;;5095446;28;20872;-85
2022/09/27 02:12:23;;;;;;;0.97;0.87;;;22.50;69.10;;;;;;5095335;28;20475;-85
2022/09/27 02:14:55;;;;;;;0.90;0.80;;;22.50;69.10;;;;;;5100274;28;20527;-85
2022/09/27 02:17:35;;;;;;;0.80;0.80;;;22.50;69.10;;;;;;5116141;28;20529;-85
2022/09/27 02:20:11;;;;;;;0.80;0.77;;;22.50;69.10;;;;;;5115630;28;20501;-86
2022/09/27 02:22:42;;;;;;;0.90;0.80;;;22.50;69.10;;;;;;5115720;28;20463;-85
2022/09/27 02:25:17;;;;;;;0.80;0.70;;;22.50;69.10;;;;;;5115551;28;20569;-85
2022/09/27 02:27:54;;;;;;;0.80;0.80;;;22.50;69.10;;;;;;5115528;28;20509;-85
2022/09/27 02:30:21;;;;;;;1.17;0.90;;;22.50;69.10;;;;;;5115438;28;20538;-86
2022/09/27 02:32:49;;;;;;;0.90;0.73;;;22.40;69.00;;;;;;5115353;28;20482;-85
2022/09/27 02:35:20;;;;;;;0.80;0.77;;;22.50;69.10;;;;;;5115796;28;20447;-86
2022/09/27 02:37:47;;;;;;;0.90;0.70;;;22.40;69.00;;;;;;5115563;28;20871;-85
2022/09/27 02:40:15;;;;;;;0.80;0.70;;;22.50;69.10;;;;;;5115352;28;20874;-85
2022/09/27 02:42:44;;;;;;;0.87;0.77;;;22.50;69.10;;;;;;5115306;28;21025;-85
2022/09/27 02:45:13;;;;;;;0.87;0.80;;;22.50;69.00;;;;;;5115018;28;20544;-85
2022/09/27 02:48:09;;;;;;;1.03;0.80;;;22.50;69.10;;;;;;5115219;28;20518;-85
2022/09/27 02:50:59;;;;;;;0.80;0.77;;;22.50;69.00;;;;;;5115210;28;20471;-85
2022/09/27 02:53:39;;;;;;;0.80;0.70;;;22.40;68.90;;;;;;5115137;28;20512;-85
2022/09/27 02:56:14;;;;;;;0.90;0.70;;;22.50;69.10;;;;;;5115010;28;20435;-85
2022/09/27 02:58:54;;;;;;;0.80;0.80;;;22.40;69.00;;;;;;5115126;28;20943;-85
2022/09/27 03:01:27;;;;;;;0.70;0.70;;;22.40;69.00;;;;;;5115106;28;20462;-86
2022/09/27 03:04:03;;;;;;;0.80;0.70;;;22.40;69.00;;;;;;5114308;28;20487;-85
2022/09/27 03:06:32;;;;;;;0.80;0.77;;;22.40;69.00;;;;;;5114691;28;20446;-85
2022/09/27 03:08:58;;;;;;;0.73;0.70;;;22.40;69.00;;;;;;5115048;28;20514;-85
2022/09/27 03:11:25;;;;;;;0.80;0.80;;;22.40;69.00;;;;;;5114828;28;20463;-85
2022/09/27 03:13:53;;;;;;;0.80;0.70;;;22.50;69.00;;;;;;5114076;28;20475;-86
2022/09/27 03:16:19;;;;;;;0.80;0.70;;;22.40;68.90;;;;;;5114789;28;20814;-85
2022/09/27 03:18:46;;;;;;;0.80;0.70;;;22.40;68.90;;;;;;5114564;28;20888;-84
2022/09/27 03:21:14;;;;;;;0.83;0.80;;;22.40;68.90;;;;;;5114516;28;20431;-85
2022/09/27 03:23:41;;;;;;;0.83;0.70;;;22.40;68.90;;;;;;5114511;28;20850;-85
2022/09/27 03:26:08;;;;;;;0.80;0.67;;;22.50;69.00;;;;;;5114687;28;20439;-85
2022/09/27 03:28:35;;;;;;;0.97;0.77;;;22.50;68.90;;;;;;5114489;28;20530;-85
2022/09/27 03:31:02;;;;;;;0.77;0.70;;;22.40;68.80;;;;;;5114403;28;20944;-85
2022/09/27 03:33:30;;;;;;;0.70;0.60;;;22.40;68.90;;;;;;5114369;28;20470;-85
2022/09/27 03:35:57;;;;;;;0.90;0.80;;;22.40;68.90;;;;;;5114496;28;20440;-85
2022/09/27 03:38:25;;;;;;;0.80;0.70;;;22.50;68.90;;;;;;5114772;28;20450;-85
2022/09/27 03:40:52;;;;;;;1.00;0.80;;;22.40;68.80;;;;;;5114083;28;20542;-85
2022/09/27 03:43:19;;;;;;;0.80;0.77;;;22.40;68.80;;;;;;5114206;28;20444;-85
2022/09/27 03:45:46;;;;;;;0.80;0.80;;;22.40;68.80;;;;;;5114228;28;20517;-84
2022/09/27 03:48:14;;;;;;;0.80;0.70;;;22.40;68.80;;;;;;5114247;28;20439;-85
2022/09/27 03:50:41;;;;;;;0.80;0.70;;;22.40;68.80;;;;;;5113961;28;20439;-85
2022/09/27 03:53:08;;;;;;;0.90;0.80;;;22.40;68.90;;;;;;5113750;28;20550;-85
2022/09/27 03:55:36;;;;;;;0.80;0.70;;;22.40;68.80;;;;;;5114508;28;20443;-85
2022/09/27 03:58:04;;;;;;;0.90;0.80;;;22.40;68.80;;;;;;5114058;28;20474;-85
2022/09/27 04:00:31;;;;;;;0.90;0.77;;;22.40;69.60;;;;;;5113959;28;20435;-85
2022/09/27 04:02:59;;;;;;;0.80;0.80;;;22.40;68.80;;;;;;5114110;28;20537;-86
2022/09/27 04:05:26;;;;;;;1.00;0.90;;;22.40;68.90;;;;;;5114100;28;20495;-85
2022/09/27 04:07:53;;;;;;;0.80;0.70;;;22.40;68.90;;;;;;5113886;28;20475;-85
2022/09/27 04:10:20;;;;;;;1.23;0.70;;;22.40;68.80;;;;;;5113798;28;20475;-85
2022/09/27 04:12:49;;;;;;;0.80;0.80;;;22.40;68.80;;;;;;5113735;28;20934;-85
2022/09/27 04:15:16;;;;;;;0.80;0.70;;;22.40;68.70;;;;;;5113937;28;20856;-85
2022/09/27 04:17:43;;;;;;;0.80;0.73;;;22.40;68.80;;;;;;5114269;28;20522;-85
2022/09/27 04:20:11;;;;;;;0.90;0.80;;;22.40;68.70;;;;;;5113653;28;20495;-85
2022/09/27 04:22:40;;;;;;;0.87;0.70;;;22.40;68.80;;;;;;5113990;28;20454;-85
2022/09/27 04:25:08;;;;;;;0.70;0.60;;;22.40;68.80;;;;;;5114084;28;20842;-84
2022/09/27 04:27:35;;;;;;;0.80;0.70;;;22.40;68.70;;;;;;5117888;28;20934;-85
2022/09/27 04:30:05;;;;;;;0.87;0.80;;;22.40;68.70;;;;;;5117816;28;20517;-85
2022/09/27 04:32:32;;;;;;;0.80;0.70;;;22.40;68.80;;;;;;5118026;28;20566;-84
2022/09/27 04:37:44;;;;;;;0.80;0.73;;;22.40;68.80;;;;;;5105508;28;20462;-85
2022/09/27 04:40:11;;;;;;;1.00;0.70;;;22.40;68.70;;;;;;5105150;28;20438;-85
2022/09/27 04:42:37;;;;;;;0.90;0.80;;;22.40;68.70;;;;;;5104110;28;20494;-85
2022/09/27 04:45:07;;;;;;;0.80;0.70;;;22.40;68.70;;;;;;5117315;28;20474;-85
2022/09/27 04:47:34;;;;;;;0.93;0.80;;;22.40;68.70;;;;;;5117595;28;20461;-85
2022/09/27 04:50:01;;;;;;;0.80;0.73;;;22.40;68.70;;;;;;5117642;28;20525;-85
2022/09/27 04:52:28;;;;;;;0.90;0.70;;;22.40;68.70;;;;;;5117438;28;20501;-85
2022/09/27 04:54:54;;;;;;;0.80;0.70;;;22.40;68.70;;;;;;5117157;28;20526;-84
2022/09/27 04:57:21;;;;;;;0.77;0.70;;;22.40;68.70;;;;;;5117616;28;20529;-84
2022/09/27 04:59:49;;;;;;;0.77;0.70;;;22.40;68.70;;;;;;5117350;28;20483;-85
2022/09/27 05:02:18;;;;;;;0.70;0.70;;;22.40;68.70;;;;;;5117328;28;20438;-84
2022/09/27 05:04:45;;;;;;;0.80;0.80;;;22.40;68.70;;;;;;5117259;28;20649;-84
2022/09/27 05:07:12;;;;;;;0.80;0.60;;;22.40;68.70;;;;;;5117153;28;20523;-84
2022/09/27 05:09:39;;;;;;;0.90;0.70;;;22.40;68.60;;;;;;5117162;28;20431;-84
2022/09/27 05:12:07;;;;;;;0.80;0.70;;;22.40;68.70;;;;;;5117203;28;20521;-85
2022/09/27 05:14:34;;;;;;;0.90;0.80;;;22.40;68.70;;;;;;5117156;28;20439;-85
2022/09/27 05:17:01;;;;;;;0.80;0.80;;;22.40;68.70;;;;;;5116912;28;20538;-85
2022/09/27 05:19:29;;;;;;;0.80;0.80;;;22.40;68.60;;;;;;5116579;28;20506;-85
2022/09/27 05:21:56;;;;;;;0.80;0.70;;;22.40;68.60;;;;;;5117027;28;21016;-85
2022/09/27 05:24:23;;;;;;;0.90;0.70;;;22.40;69.50;;;;;;5116387;28;20522;-84
2022/09/27 05:26:50;;;;;;;0.97;0.87;;;22.40;68.60;;;;;;5116887;28;20554;-84
2022/09/27 05:29:17;;;;;;;0.80;0.80;;;22.40;68.60;;;;;;5116823;28;20519;-85
2022/09/27 05:31:44;;;;;;;0.80;0.80;;;22.40;68.60;;;;;;5116483;28;20447;-85
2022/09/27 05:34:11;;;;;;;0.90;0.80;;;22.40;68.70;;;;;;5116476;28;20478;-85
2022/09/27 05:36:39;;;;;;;0.80;0.80;;;22.40;68.70;;;;;;5116250;28;20922;-84
2022/09/27 05:39:07;;;;;;;0.80;0.80;;;22.40;68.60;;;;;;5115988;28;20431;-84
2022/09/27 05:41:33;;;;;;;0.87;0.80;;;22.30;68.50;;;;;;5116626;28;20442;-85
2022/09/27 05:44:01;;;;;;;1.00;0.90;;;22.30;68.60;;;;;;5116522;28;20534;-86
2022/09/27 05:46:28;;;;;;;1.33;0.80;;;22.40;68.60;;;;;;5116721;28;20478;-86
2022/09/27 05:48:54;;;;;;;0.80;0.77;;;22.30;68.50;;;;;;5116163;28;20938;-85
2022/09/27 05:51:21;;;;;;;0.80;0.80;;;22.30;68.50;;;;;;5116246;28;20495;-86
2022/09/27 05:53:49;;;;;;;0.80;0.70;;;22.30;68.50;;;;;;5116049;28;20509;-85
2022/09/27 05:56:17;;;;;;;0.77;0.70;;;22.40;68.60;;;;;;5116107;28;20525;-86
2022/09/27 05:58:44;;;;;;;0.80;0.70;;;22.40;68.60;;;;;;5116115;28;20435;-85
2022/09/27 06:01:11;;;;;;;0.80;0.70;;;22.40;68.60;;;;;;5116186;28;20446;-85
2022/09/27 06:03:39;;;;;;;0.80;0.80;;;22.40;68.60;;;;;;5100310;28;20476;-85
2022/09/27 06:06:09;;;;;;;0.83;0.70;;;22.40;68.60;;;;;;5095549;28;20515;-86
2022/09/27 06:08:37;;;;;;;0.80;0.70;;;22.40;68.50;;;;;;5095679;28;20648;-85
2022/09/27 06:11:08;;;;;;;1.00;0.80;;;22.30;68.50;;;;;;5095526;28;20531;-85
2022/09/27 06:13:36;;;;;;;0.80;0.80;;;22.40;68.60;;;;;;5095798;28;20471;-86
2022/09/27 06:16:03;;;;;;;0.90;0.80;;;22.40;68.60;;;;;;5095607;28;20452;-85
2022/09/27 06:18:30;;;;;;;0.70;0.60;;;22.30;68.50;;;;;;5095353;28;20472;-85
2022/09/27 06:20:59;;;;;;;0.80;0.70;;;22.30;68.50;;;;;;5095252;28;20443;-85
2022/09/27 06:23:26;;;;;;;0.80;0.70;;;22.30;68.50;;;;;;5104173;28;20446;-84
2022/09/27 06:25:54;;;;;;;0.80;0.80;;;22.30;68.50;;;;;;5115306;28;20489;-85
2022/09/27 06:28:23;;;;;;;0.90;0.70;;;22.30;68.50;;;;;;5115578;28;20538;-84
2022/09/27 06:30:51;;;;;;;1.27;0.80;;;22.30;68.50;;;;;;5115836;28;20791;-85
2022/09/27 06:33:19;;;;;;;1.00;0.90;;;22.30;68.50;;;;;;5115482;28;20446;-85
2022/09/27 06:35:48;;;;;;;0.90;0.80;;;22.40;68.70;;;;;;5115636;28;20463;-85
2022/09/27 06:38:20;;;;;;;0.80;0.70;;;22.40;68.80;;;;;;5115558;28;20976;-85
2022/09/27 06:40:47;;;;;;;0.90;0.80;;;22.40;68.90;;;;;;5115473;28;20446;-85
2022/09/27 06:43:16;;;;;;;1.83;0.80;;;22.40;68.90;;;;;;5115167;28;20526;-84
2022/09/27 06:45:44;;;;;;;0.90;0.80;;;22.40;69.90;;;;;;5115285;28;20514;-85
2022/09/27 06:48:13;;;;;;;1.10;0.80;;;22.40;69.20;;;;;;5114441;28;20471;-85
2022/09/27 06:50:42;;;;;;;1.30;0.97;;;22.40;69.20;;;;;;5115239;28;20467;-85
2022/09/27 06:53:11;;;;;;;1.00;0.90;;;22.40;69.50;;;;;;5115438;28;20439;-85
2022/09/27 06:55:39;;;;;;;2.90;1.00;;;22.40;69.60;;;;;;5114811;28;20525;-85
2022/09/27 07:00:52;;;;;;;1.10;0.90;;;22.40;69.90;;;;;;5115444;28;20418;-85
2022/09/27 07:03:21;;;;;;;1.47;0.90;;;22.40;70.00;;;;;;5114762;28;20486;-85
2022/09/27 07:05:56;;;;;;;1.23;0.90;;;22.40;70.10;;;;;;5110667;28;20935;-85
2022/09/27 07:08:23;;;;;;;0.97;0.87;;;22.40;70.10;;;;;;5094179;28;20797;-85
2022/09/27 07:10:51;;;;;;;1.90;1.00;;;22.40;70.00;;;;;;5108179;28;21207;-84
2022/09/27 07:13:19;;;;;;;0.90;0.80;;;22.40;70.00;;;;;;5114533;28;20451;-85
2022/09/27 07:15:45;;;;;;;1.00;0.83;;;22.40;70.00;;;;;;5114307;28;20443;-85
2022/09/27 07:18:14;;;;;;;1.23;0.93;;;22.40;70.00;;;;;;5104561;28;20519;-85
2022/09/27 07:20:41;;;;;;;1.60;0.90;;;22.40;70.10;;;;;;5106832;28;20494;-85
2022/09/27 07:23:09;;;;;;;2.67;1.50;;;22.40;70.20;;;;;;5114799;28;20518;-85
2022/09/27 07:25:36;;;;;;;1.00;0.80;;;22.40;70.20;;;;;;5114865;28;20471;-85
2022/09/27 07:28:05;;;;;;;1.20;0.93;;;22.40;70.40;;;;;;5114543;28;20471;-89
2022/09/27 07:30:32;;;;;;;2.03;1.00;;;22.40;70.20;;;;;;5114868;28;20462;-90
2022/09/27 07:33:01;;;;;;;0.90;0.80;;;22.40;70.10;;;;;;5114541;28;20518;-86
2022/09/27 07:35:29;;;;;;;4.03;1.10;;;22.40;70.20;;;;;;5106158;28;20556;-84
2022/09/27 07:38:02;;;;;;;5.77;0.80;;;22.40;70.40;;;;;;5095866;28;20813;-84
2022/09/27 07:40:29;;;;;;;1.40;0.87;;;22.40;70.30;;;;;;5095756;28;20472;-87
2022/09/27 07:42:57;;;;;;;1.00;0.90;;;22.40;70.40;;;;;;5094002;28;20440;-85
2022/09/27 07:45:24;;;;;;;2.60;1.10;;;22.40;70.20;;;;;;5093970;28;20570;-86
2022/09/27 07:47:52;;;;;;;2.20;0.80;;;22.40;70.20;;;;;;5094263;28;20846;-83
2022/09/27 07:50:19;;;;;;;5.00;1.07;;;22.50;70.40;;;;;;5112427;28;20435;-83
2022/09/27 07:52:50;;;;;;;1.20;0.90;;;22.40;70.10;;;;;;5113776;28;21013;-84
2022/09/27 07:55:18;;;;;;;2.90;1.37;;;22.40;71.00;;;;;;5114238;28;20446;-83
2022/09/27 07:57:45;;;;;;;1.83;0.93;;;22.40;70.20;;;;;;5113806;28;20481;-83
2022/09/27 08:00:14;;;;;;;1.07;0.97;;;22.50;70.10;;;;;;5113114;28;20477;-83
2022/09/27 08:02:41;;;;;;;2.40;1.00;;;22.40;69.90;;;;;;5113114;28;20447;-83
2022/09/27 08:05:09;;;;;;;1.90;1.33;;;22.50;69.90;;;;;;5114097;28;20458;-83
2022/09/27 08:07:38;;;;;;;1.87;1.00;;;22.40;69.80;;;;;;5113884;28;20468;-83
2022/09/27 08:10:08;;;;;;;1.47;0.73;;;22.40;69.80;;;;;;5113373;28;20442;-84
2022/09/27 08:12:35;;;;;;;2.70;1.43;;;22.50;70.00;;;;;;5113750;28;20451;-83
2022/09/27 08:15:03;;;;;;;1.20;1.10;;;22.50;69.80;;;;;;5113995;28;20471;-83
2022/09/27 08:17:30;;;;;;;1.00;0.90;;;22.50;69.70;;;;;;5113521;28;20538;-83
2022/09/27 08:19:57;;;;;;;0.90;0.70;;;22.50;69.90;;;;;;5113715;28;20510;-84
2022/09/27 08:22:24;;;;;;;1.73;0.90;;;22.50;70.00;;;;;;5113702;28;20832;-84
2022/09/27 08:24:51;;;;;;;2.27;1.20;;;22.50;70.10;;;;;;5113575;28;20470;-84
2022/09/27 08:27:19;;;;;;;2.57;1.00;;;22.50;70.40;;;;;;5113615;28;20608;-84
2022/09/27 08:29:46;;;;;;;0.80;0.73;;;22.50;69.90;;;;;;5113476;28;20894;-84
2022/09/27 08:32:13;;;;;;;1.90;0.80;;;22.50;69.80;;;;;;5113564;28;20514;-84
2022/09/27 08:34:42;;;;;;;2.40;0.80;;;22.50;69.70;;;;;;5113245;28;20427;-84
2022/09/27 08:37:09;;;;;;;1.50;1.07;;;22.50;69.50;;;;;;5113397;28;20522;-84
2022/09/27 08:39:36;;;;;;;1.17;0.90;;;22.50;69.60;;;;;;5114202;28;20439;-85
2022/09/27 08:42:12;;;;;;;1.20;1.10;;;22.50;69.80;;;;;;5113749;28;20439;-85
2022/09/27 08:44:48;;;;;;;2.10;0.93;;;22.50;69.90;;;;;;5113719;28;20438;-84
2022/09/27 08:47:18;;;;;;;1.20;1.00;;;22.60;70.00;;;;;;5113818;28;20481;-84
2022/09/27 08:49:50;;;;;;;0.90;0.80;;;22.70;70.20;;;;;;5113188;28;20546;-83
2022/09/27 08:52:20;;;;;;;1.57;1.10;;;22.70;70.20;;;;;;5113289;28;20550;-82
2022/09/27 08:54:49;;;;;;;1.60;1.03;;;22.70;70.30;;;;;;5113288;28;20454;-83
2022/09/27 08:57:16;;;;;;;2.03;1.00;;;22.70;70.30;;;;;;5113168;28;20526;-83
2022/09/27 08:59:50;;;;;;;2.30;0.87;;;22.80;70.20;;;;;;5113076;28;20946;-83
2022/09/27 09:02:19;;;;;;;1.10;0.80;;;22.80;70.00;;;;;;5112895;28;20530;-82
2022/09/27 09:04:49;;;;;;;1.10;1.00;;;22.80;70.00;;;;;;5113295;28;20604;-83
2022/09/27 09:07:29;;;;;;;0.90;0.80;;;22.90;70.00;;;;;;5113332;28;20582;-84
2022/09/27 09:10:06;;;;;;;1.40;0.87;;;22.90;70.00;;;;;;5113269;28;20447;-83
2022/09/27 09:12:48;;;;;;;4.23;1.07;;;22.80;69.80;;;;;;5114142;28;20427;-83
2022/09/27 09:15:53;;;;;;;1.20;1.00;;;22.90;70.00;;;;;;5116576;28;20439;-85
2022/09/27 09:18:32;;;;;;;2.90;1.20;;;22.80;69.70;;;;;;5115983;28;20500;-84
2022/09/27 09:21:10;;;;;;;1.00;0.80;;;22.80;69.80;;;;;;5116908;28;20537;-84
2022/09/27 09:24:11;;;;;;;2.10;0.90;;;22.80;69.80;;;;;;5116738;28;20489;-84
2022/09/27 09:26:45;;;;;;;1.07;0.90;;;22.80;69.80;;;;;;5116356;28;20517;-84
2022/09/27 09:29:37;;;;;;;2.03;0.80;;;22.70;69.80;;;;;;5116642;28;20486;-84
2022/09/27 09:32:17;;;;;;;1.00;0.83;;;22.80;69.80;;;;;;5116701;28;21033;-84
2022/09/27 09:34:49;;;;;;;1.00;0.90;;;22.70;69.90;;;;;;5117131;28;20435;-84
2022/09/27 09:37:20;;;;;;;1.60;1.00;;;22.70;69.90;;;;;;5116680;28;20534;-84
2022/09/27 09:39:51;;;;;;;1.13;0.97;;;22.70;69.90;;;;;;5116550;28;20446;-84
2022/09/27 09:42:24;;;;;;;1.00;0.90;;;22.70;69.90;;;;;;5116689;28;20446;-88
2022/09/27 09:44:57;;;;;;;1.00;0.90;;;22.70;70.00;;;;;;5116613;28;20435;-85
2022/09/27 09:47:34;;;;;;;1.00;0.90;;;22.70;69.90;;;;;;5116843;28;20905;-84
2022/09/27 09:50:05;;;;;;;0.90;0.80;;;22.70;69.90;;;;;;5116688;28;20431;-84
2022/09/27 09:52:40;;;;;;;1.10;0.90;;;22.70;69.90;;;;;;5116702;28;20459;-84
2022/09/27 09:55:17;;;;;;;1.23;0.80;;;22.70;69.90;;;;;;5116425;28;20485;-84
2022/09/27 09:57:56;;;;;;;1.00;0.90;;;22.80;69.90;;;;;;5116506;28;20486;-84
2022/09/27 10:00:22;;;;;;;4.87;0.90;;;22.80;70.00;;;;;;5116158;28;20941;-84
2022/09/27 10:02:54;;;;;;;2.13;1.00;;;22.80;69.90;;;;;;5116390;28;20846;-84
2022/09/27 10:05:23;;;;;;;1.13;0.90;;;22.80;69.90;;;;;;5116066;28;20478;-84
2022/09/27 10:07:53;;;;;;;1.03;0.70;;;22.80;69.80;;;;;;5116215;28;20890;-85
2022/09/27 10:10:21;;;;;;;1.20;1.00;;;22.80;69.80;;;;;;5115808;28;20530;-84
2022/09/27 10:12:49;;;;;;;0.93;0.83;;;22.90;70.00;;;;;;5116255;28;20857;-84
2022/09/27 10:15:19;;;;;;;1.07;0.87;;;22.90;69.80;;;;;;5115871;28;21021;-86
2022/09/27 10:17:52;;;;;;;1.10;0.87;;;22.90;69.80;;;;;;5115753;28;20439;-84
2022/09/27 10:20:27;;;;;;;3.40;0.87;;;22.90;69.80;;;;;;5115663;28;20473;-84
2022/09/27 10:22:59;;;;;;;0.87;0.80;;;22.90;69.70;;;;;;5115514;28;20506;-84
2022/09/27 10:25:45;;;;;;;1.00;0.80;;;22.90;69.70;;;;;;5115774;28;20482;-84
2022/09/27 10:28:31;;;;;;;0.97;0.80;;;22.90;70.50;;;;;;5115594;28;20525;-84
2022/09/27 10:31:01;;;;;;;1.23;0.90;;;22.90;69.60;;;;;;5115631;28;20856;-84
2022/09/27 10:33:31;;;;;;;0.90;0.80;;;22.80;69.60;;;;;;5115425;28;20445;-84
2022/09/27 10:35:59;;;;;;;1.03;0.90;;;22.80;69.60;;;;;;5115512;28;20462;-84
2022/09/27 10:38:28;;;;;;;0.97;0.87;;;22.80;69.60;;;;;;5115821;28;20504;-84
2022/09/27 10:40:58;;;;;;;1.10;0.80;;;22.80;69.60;;;;;;5115559;28;20463;-84
2022/09/27 10:43:32;;;;;;;0.80;0.70;;;22.80;69.60;;;;;;5115222;28;20431;-84
2022/09/27 10:46:16;;;;;;;0.90;0.73;;;22.80;69.60;;;;;;5115483;28;20480;-85
2022/09/27 10:48:44;;;;;;;0.93;0.80;;;22.80;69.60;;;;;;5115260;28;20854;-84
2022/09/27 10:51:28;;;;;;;0.90;0.70;;;22.80;69.60;;;;;;5115096;28;20977;-84
2022/09/27 10:53:59;;;;;;;1.00;0.90;;;22.90;69.70;;;;;;5115186;28;20525;-84
2022/09/27 10:56:29;;;;;;;0.80;0.70;;;22.80;69.60;;;;;;5115096;28;20445;-84
2022/09/27 10:58:58;;;;;;;0.90;0.80;;;22.80;69.70;;;;;;5114993;28;20538;-85
2022/09/27 11:01:41;;;;;;;0.90;0.77;;;22.80;69.70;;;;;;5115465;28;20518;-85
2022/09/27 11:04:20;;;;;;;0.97;0.80;;;22.70;69.60;;;;;;5114512;28;20435;-84
2022/09/27 11:06:47;;;;;;;1.13;0.87;;;22.70;69.60;;;;;;5114891;28;20569;-85
2022/09/27 11:09:23;;;;;;;1.43;1.17;;;22.70;69.70;;;;;;5114898;28;20447;-85
2022/09/27 11:11:50;;;;;;;0.87;0.77;;;22.70;69.60;;;;;;5114678;28;20427;-86
2022/09/27 11:14:20;;;;;;;1.10;0.80;;;22.70;69.60;;;;;;5114924;28;20431;-86
2022/09/27 11:17:05;;;;;;;1.10;0.80;;;22.70;69.60;;;;;;5114945;28;21005;-86
2022/09/27 11:19:54;;;;;;;0.90;0.80;;;22.80;69.70;;;;;;5114632;28;20558;-85
2022/09/27 11:22:51;;;;;;;0.90;0.80;;;22.70;69.60;;;;;;5114461;28;20459;-85
2022/09/27 11:25:30;;;;;;;0.80;0.70;;;22.80;69.80;;;;;;5114547;28;20473;-85
2022/09/27 11:28:05;;;;;;;0.80;0.70;;;22.80;69.80;;;;;;5114447;28;20474;-85
2022/09/27 11:30:41;;;;;;;1.20;0.70;;;22.80;69.70;;;;;;5114446;28;20533;-85
2022/09/27 11:33:35;;;;;;;1.00;0.83;;;22.70;69.50;;;;;;5114388;28;20526;-85
2022/09/27 11:36:10;;;;;;;1.10;1.00;;;22.70;69.50;;;;;;5113794;28;20439;-85
2022/09/27 11:38:51;;;;;;;0.80;0.70;;;22.70;69.60;;;;;;5096229;28;20479;-85
2022/09/27 11:41:36;;;;;;;0.80;0.80;;;22.70;69.60;;;;;;5114170;28;20477;-85
2022/09/27 11:44:21;;;;;;;1.10;1.00;;;22.70;69.60;;;;;;5114295;28;20435;-85
2022/09/27 11:46:57;;;;;;;1.30;0.93;;;22.70;69.50;;;;;;5114515;28;21060;-85
2022/09/27 11:49:42;;;;;;;1.10;0.70;;;22.70;69.60;;;;;;5114308;28;20469;-85
2022/09/27 11:52:31;;;;;;;0.90;0.70;;;22.70;69.60;;;;;;5114169;28;20490;-85
2022/09/27 11:55:19;;;;;;;0.93;0.87;;;22.80;69.60;;;;;;5114184;28;20439;-85
2022/09/27 11:57:50;;;;;;;0.80;0.70;;;22.80;69.60;;;;;;5114140;28;20442;-85
2022/09/27 12:00:21;;;;;;;0.90;0.70;;;22.80;69.60;;;;;;5113913;28;20443;-86
2022/09/27 12:03:24;;;;;;;0.90;0.80;;;22.80;69.50;;;;;;5093849;28;20800;-85
2022/09/27 12:06:02;;;;;;;0.80;0.60;;;22.80;69.50;;;;;;5093801;28;20930;-85
2022/09/27 12:08:45;;;;;;;0.90;0.80;;;22.80;69.60;;;;;;5093654;28;20483;-85
2022/09/27 12:11:18;;;;;;;0.90;0.70;;;22.80;70.40;;;;;;5094007;28;20443;-85
2022/09/27 12:13:48;;;;;;;1.00;0.70;;;22.80;69.50;;;;;;5093626;28;20436;-85
2022/09/27 12:16:19;;;;;;;1.00;0.90;;;22.80;69.60;;;;;;5093544;28;20435;-85
2022/09/27 12:18:48;;;;;;;0.90;0.70;;;22.80;69.50;;;;;;5093180;28;20922;-85
2022/09/27 12:21:16;;;;;;;0.90;0.80;;;22.70;69.40;;;;;;5093189;28;20482;-85
2022/09/27 12:23:47;;;;;;;0.90;0.80;;;22.70;69.50;;;;;;5093573;28;20436;-85
2022/09/27 12:26:19;;;;;;;0.90;0.80;;;22.70;69.50;;;;;;5093285;28;20514;-85
2022/09/27 12:28:53;;;;;;;0.90;0.80;;;22.70;69.50;;;;;;5093282;28;20440;-85
2022/09/27 12:31:24;;;;;;;0.73;0.60;;;22.80;69.50;;;;;;5093395;28;21041;-85
2022/09/27 12:34:02;;;;;;;1.03;0.70;;;22.80;69.50;;;;;;5093589;28;20506;-85
2022/09/27 12:36:34;;;;;;;0.90;0.80;;;22.80;69.50;;;;;;5093641;28;20444;-85
2022/09/27 12:39:12;;;;;;;1.00;0.70;;;22.80;69.50;;;;;;5093439;28;20444;-85
2022/09/27 12:41:43;;;;;;;0.93;0.83;;;22.80;69.50;;;;;;5093203;28;20445;-85
2022/09/27 12:44:11;;;;;;;0.80;0.70;;;22.90;70.50;;;;;;5093593;28;20431;-85
2022/09/27 12:46:46;;;;;;;0.80;0.80;;;22.80;69.60;;;;;;5094039;28;20439;-85
2022/09/27 12:49:18;;;;;;;1.00;0.70;;;22.80;69.50;;;;;;5097418;28;20435;-85
2022/09/27 12:51:51;;;;;;;0.80;0.70;;;22.80;69.50;;;;;;5097547;28;20997;-85
2022/09/27 12:54:37;;;;;;;1.20;1.00;;;22.80;70.30;;;;;;5097225;28;20600;-85
2022/09/27 12:57:15;;;;;;;1.00;0.80;;;22.80;69.40;;;;;;5097342;28;20786;-85
2022/09/27 13:00:05;;;;;;;0.93;0.80;;;22.90;69.50;;;;;;5097331;28;20784;-85
2022/09/27 13:03:06;;;;;;;1.47;0.80;;;22.80;69.40;;;;;;5097003;28;20443;-85
2022/09/27 13:05:58;;;;;;;2.00;1.37;;;22.80;69.40;;;;;;5096997;28;20438;-85
2022/09/27 13:08:37;;;;;;;0.97;0.87;;;22.80;69.50;;;;;;5096943;28;20494;-85
2022/09/27 13:11:13;;;;;;;0.80;0.70;;;22.80;69.50;;;;;;5096756;28;20439;-85
2022/09/27 13:13:39;;;;;;;0.80;0.80;;;22.70;69.40;;;;;;5096948;28;20439;-85
2022/09/27 13:16:07;;;;;;;0.90;0.80;;;22.70;69.40;;;;;;5097024;28;20947;-85
2022/09/27 13:18:52;;;;;;;1.00;0.90;;;22.70;69.40;;;;;;5096540;28;20467;-85